Princeton's Hourly Summary for Tuesday, July 10, 2018
Hour Temp
(f)
RH
(%)
Solar Rad.
(MJ/m2)
Rainfall
(in)
Wind
(mph)
7/10/2018 12:00 AM 76 85 0 0 1.34
7/10/2018 1:00 AM 76 99 0 0 2.57
7/10/2018 2:00 AM 75 99 0 0 2.08
7/10/2018 3:00 AM 75 99 0 0 0.87
7/10/2018 4:00 AM 74 99 0 0 0.56
7/10/2018 5:00 AM 74 99 0 0 2.18
7/10/2018 6:00 AM 74 99 0 0 2.63
7/10/2018 7:00 AM 74 99 0.02 0 3.14
7/10/2018 8:00 AM 74 99 0.19 0 2.76
7/10/2018 9:00 AM 76 83 0.5 0 2.38
7/10/2018 10:00 AM 79 66 1.29 0 1.3
7/10/2018 11:00 AM 83 58 2.53 0 1.89
7/10/2018 12:00 PM 86 49 2.98 0 2.13
7/10/2018 1:00 PM 87 49 2.07 0 2.47
7/10/2018 2:00 PM 90 43 3.15 0 3.29
7/10/2018 3:00 PM 91 41 2.93 0 3.17
7/10/2018 4:00 PM 93 37 2.07 0 2.54
7/10/2018 5:00 PM 91 35 1.03 0 4.55
7/10/2018 6:00 PM 84 56 0.81 0 3.36
7/10/2018 7:00 PM 84 53 0.61 0 2.24
7/10/2018 8:00 PM 84 53 0.23 0 1.57
7/10/2018 9:00 PM 83 57 0.03 0 0.1
7/10/2018 10:00 PM 81 62 0 0 0.51
7/10/2018 11:00 PM 80 68 0 0 1.46
Data Summary 81 70 20.44 0.00 2.13